createdAt,value
2019-05-03T00:01:33.146Z,95084.87
2019-05-03T00:03:59.473Z,95084.56
2019-05-03T00:06:25.794Z,95081.59
2019-05-03T00:08:52.219Z,95081.74
2019-05-03T00:11:18.450Z,95085.65
2019-05-03T00:13:44.677Z,95086.14
2019-05-03T00:16:25.037Z,95085.47
2019-05-03T00:18:52.706Z,95090.75
2019-05-03T00:21:19.036Z,95077.86
2019-05-03T00:23:45.145Z,95084.09
2019-05-03T00:26:12.018Z,95086.38
2019-05-03T00:28:38.332Z,95080.11
2019-05-03T00:31:04.785Z,95075.97
2019-05-03T00:33:31.786Z,95077.66
2019-05-03T00:36:09.301Z,95080.48
2019-05-03T00:38:35.680Z,95070.81
2019-05-03T00:41:01.918Z,95078.38
2019-05-03T00:43:28.406Z,95064.87
2019-05-03T00:45:54.587Z,95067.94
2019-05-03T00:48:21.930Z,95071.36
2019-05-03T00:50:48.372Z,95062.94
2019-05-03T00:53:14.742Z,95066.59
2019-05-03T00:55:41.991Z,95065.09
2019-05-03T00:58:08.290Z,95057.35
2019-05-03T01:00:34.753Z,95058.16
2019-05-03T01:03:02.186Z,95063.41
2019-05-03T01:05:28.560Z,95061.08
2019-05-03T01:07:54.806Z,95054.10
2019-05-03T01:10:22.592Z,95058.71
2019-05-03T01:12:49.072Z,95062.98
2019-05-03T01:15:17.463Z,95065.31
2019-05-03T01:17:43.724Z,95069.89
2019-05-03T01:20:11.845Z,95070.36
2019-05-03T01:22:38.151Z,95071.86
2019-05-03T01:25:05.876Z,95068.39
2019-05-03T01:27:32.754Z,95068.20
2019-05-03T01:30:00.152Z,95066.58
2019-05-03T01:32:26.379Z,95070.53
2019-05-03T01:34:52.678Z,95070.23
2019-05-03T01:37:18.800Z,95068.56
2019-05-03T01:39:45.142Z,95069.64
2019-05-03T01:42:11.946Z,95069.67
2019-05-03T01:44:38.307Z,95066.08
2019-05-03T01:47:06.405Z,95070.58
2019-05-03T01:49:42.579Z,95060.55
2019-05-03T01:52:12.680Z,95066.31
2019-05-03T01:54:38.936Z,95064.99
2019-05-03T01:57:05.435Z,95062.07
2019-05-03T01:59:32.658Z,95063.73
2019-05-03T02:02:13.128Z,95070.52
2019-05-03T02:04:44.325Z,95071.49
2019-05-03T02:07:11.749Z,95066.91
2019-05-03T02:09:38.122Z,95065.91
2019-05-03T02:12:04.583Z,95067.77
2019-05-03T02:14:31.745Z,95070.28
2019-05-03T02:16:58.131Z,95073.10
2019-05-03T02:19:24.482Z,95075.27
2019-05-03T02:21:52.361Z,95076.13
2019-05-03T02:24:21.961Z,95078.64
2019-05-03T02:26:47.987Z,95077.37
2019-05-03T02:29:14.220Z,95074.78
2019-05-03T02:31:43.354Z,95071.18
2019-05-03T02:34:08.496Z,95071.18
2019-05-03T02:36:34.931Z,95073.12
2019-05-03T02:39:02.847Z,95069.03
2019-05-03T02:41:31.317Z,95070.53
2019-05-03T02:43:58.898Z,95064.60
2019-05-03T02:46:32.789Z,95068.56
2019-05-03T02:49:09.558Z,95065.30
2019-05-03T02:51:36.126Z,95064.42
2019-05-03T02:54:05.412Z,95057.83
2019-05-03T02:56:30.665Z,95061.61
2019-05-03T02:58:56.789Z,95062.80
2019-05-03T03:01:26.378Z,95060.02
2019-05-03T03:03:52.268Z,95063.16
2019-05-03T03:06:18.809Z,95060.83
2019-05-03T03:08:48.185Z,95064.16
2019-05-03T03:11:16.707Z,95067.78
2019-05-03T03:13:45.742Z,95065.84
2019-05-03T03:16:12.487Z,95058.04
2019-05-03T03:18:39.492Z,95060.88
2019-05-03T03:21:10.568Z,95054.45
2019-05-03T03:23:57.409Z,95055.78
2019-05-03T03:26:37.155Z,95047.91
2019-05-03T03:29:02.046Z,95058.33
2019-05-03T03:31:32.074Z,95053.67
2019-05-03T03:34:07.782Z,95057.00
2019-05-03T03:36:50.337Z,95061.77
2019-05-03T03:39:06.023Z,95071.34
2019-05-03T03:41:32.691Z,95088.97
2019-05-03T03:44:01.594Z,95097.55
2019-05-03T03:46:32.241Z,95103.91
2019-05-03T03:49:00.340Z,95106.64
2019-05-03T03:51:29.815Z,95108.97
2019-05-03T03:53:58.134Z,95122.53
2019-05-03T03:56:28.174Z,95118.61
2019-05-03T03:58:55.600Z,95124.89
2019-05-03T04:01:22.069Z,95127.55
2019-05-03T04:03:48.270Z,95136.44
2019-05-03T04:06:15.555Z,95139.76
2019-05-03T04:08:41.944Z,95145.66
2019-05-03T04:11:08.196Z,95149.95
2019-05-03T04:13:36.338Z,95147.20
2019-05-03T04:16:25.732Z,95159.79
2019-05-03T04:19:01.984Z,95159.34
2019-05-03T04:21:28.432Z,95171.56
2019-05-03T04:23:55.674Z,95171.40
2019-05-03T04:26:22.372Z,95178.14
2019-05-03T04:28:48.685Z,95178.00
2019-05-03T04:31:15.405Z,95179.63
2019-05-03T04:33:41.635Z,95185.91
2019-05-03T04:36:07.938Z,95185.77
2019-05-03T04:38:35.406Z,95194.63
2019-05-03T04:41:02.147Z,95201.22
2019-05-03T04:43:28.313Z,95201.03
2019-05-03T04:46:02.476Z,95203.84
2019-05-03T04:48:29.702Z,95216.48
2019-05-03T04:50:55.976Z,95220.27
2019-05-03T04:53:22.211Z,95227.34
2019-05-03T04:55:48.328Z,95229.97
2019-05-03T04:58:16.147Z,95240.48
2019-05-03T05:00:46.285Z,95244.56
2019-05-03T05:03:11.671Z,95246.36
2019-05-03T05:05:37.859Z,95254.73
2019-05-03T05:08:05.857Z,95253.26
2019-05-03T05:10:32.155Z,95253.42
2019-05-03T05:12:58.316Z,95263.73
2019-05-03T05:15:26.464Z,95261.11
2019-05-03T05:17:57.488Z,95275.41
2019-05-03T05:20:28.059Z,95273.45
2019-05-03T05:22:54.443Z,95272.78
2019-05-03T05:25:22.531Z,95271.14
2019-05-03T05:27:59.466Z,95284.08
2019-05-03T05:30:25.692Z,95290.45
2019-05-03T05:32:51.900Z,95288.66
2019-05-03T05:35:18.338Z,95293.43
2019-05-03T05:37:44.717Z,95288.50
2019-05-03T05:40:11.238Z,95293.80
2019-05-03T05:42:37.512Z,95294.12
2019-05-03T05:45:05.763Z,95289.19
2019-05-03T05:47:36.788Z,95287.75
2019-05-03T05:50:06.788Z,95290.18
2019-05-03T05:52:34.647Z,95291.66
2019-05-03T05:55:21.202Z,95300.06
2019-05-03T05:58:02.951Z,95291.70
2019-05-03T06:00:25.938Z,95296.64
2019-05-03T06:02:52.102Z,95291.02
2019-05-03T06:05:18.288Z,95301.38
2019-05-03T06:07:55.033Z,95304.84
2019-05-03T06:10:25.870Z,95302.69
2019-05-03T06:12:56.863Z,95304.37
2019-05-03T06:15:35.473Z,95320.61
2019-05-03T06:18:09.324Z,95322.61
2019-05-03T06:20:37.419Z,95324.41
2019-05-03T06:23:05.634Z,95331.61
2019-05-03T06:25:35.344Z,95333.59
2019-05-03T06:28:16.973Z,95334.55
2019-05-03T06:30:45.743Z,95330.29
2019-05-03T06:33:14.397Z,95336.71
2019-05-03T06:35:40.702Z,95332.65
2019-05-03T06:38:06.950Z,95318.06
2019-05-03T06:40:35.256Z,95317.12
2019-05-03T06:43:08.676Z,95316.33
2019-05-03T06:45:29.518Z,95317.32
2019-05-03T06:47:55.756Z,95325.38
2019-05-03T06:50:27.259Z,95326.86
2019-05-03T06:52:50.134Z,95331.26
2019-05-03T06:55:16.395Z,95327.80
2019-05-03T06:57:49.057Z,95329.14
2019-05-03T07:00:31.628Z,95330.14
2019-05-03T07:03:05.810Z,95334.11
2019-05-03T07:05:36.940Z,95329.83
2019-05-03T07:08:05.268Z,95334.95
2019-05-03T07:10:35.119Z,95338.88
2019-05-03T07:13:08.608Z,95341.84
2019-05-03T07:15:35.117Z,95350.55
2019-05-03T07:18:01.486Z,95349.21
2019-05-03T07:20:27.654Z,95352.16
2019-05-03T07:22:55.728Z,95350.50
2019-05-03T07:25:22.506Z,95359.35
2019-05-03T07:27:48.764Z,95366.23
2019-05-03T07:30:15.683Z,95362.27
2019-05-03T07:32:44.871Z,95364.09
2019-05-03T07:35:11.413Z,95369.52
2019-05-03T07:37:37.591Z,95373.77
2019-05-03T07:40:06.912Z,95373.45
2019-05-03T07:42:34.730Z,95377.08
2019-05-03T07:45:00.866Z,95370.86
2019-05-03T07:47:27.209Z,95375.81
2019-05-03T07:49:54.683Z,95379.27
2019-05-03T07:52:21.063Z,95380.27
2019-05-03T07:54:47.234Z,95381.59
2019-05-03T07:57:25.519Z,95384.41
2019-05-03T07:59:51.803Z,95391.16
2019-05-03T08:02:18.537Z,95378.48
2019-05-03T08:04:44.648Z,95388.36
2019-05-03T08:07:22.093Z,95390.16
2019-05-03T08:09:38.863Z,95381.94
2019-05-03T08:12:05.317Z,95393.75
2019-05-03T08:14:31.540Z,95393.27
2019-05-03T08:16:57.725Z,95394.55
2019-05-03T08:19:26.846Z,95398.27
2019-05-03T08:21:52.165Z,95395.75
2019-05-03T08:24:18.346Z,95398.02
2019-05-03T08:26:45.306Z,95399.69
2019-05-03T08:29:16.169Z,95398.70
2019-05-03T08:31:41.714Z,95395.75
2019-05-03T08:34:15.669Z,95402.00
2019-05-03T08:36:55.899Z,95397.75
2019-05-03T08:39:25.262Z,95392.81
2019-05-03T08:41:58.851Z,95395.01
2019-05-03T08:44:25.971Z,95404.22
2019-05-03T08:46:52.312Z,95404.58
2019-05-03T08:49:18.576Z,95401.52
2019-05-03T08:51:44.807Z,95401.20
2019-05-03T08:54:10.967Z,95400.04
2019-05-03T08:56:37.144Z,95399.00
2019-05-03T08:59:04.650Z,95412.48
2019-05-03T09:01:30.999Z,95411.36
2019-05-03T09:03:57.174Z,95404.75
2019-05-03T09:06:24.807Z,95408.73
2019-05-03T09:08:54.231Z,95409.09
2019-05-03T09:11:30.738Z,95408.09
2019-05-03T09:13:52.395Z,95413.32
2019-05-03T09:16:18.615Z,95403.42
2019-05-03T09:18:45.512Z,95406.38
2019-05-03T09:21:11.800Z,95404.63
2019-05-03T09:23:37.961Z,95403.31
2019-05-03T09:26:04.704Z,95404.78
2019-05-03T09:28:30.946Z,95406.27
2019-05-03T09:30:57.175Z,95398.24
2019-05-03T09:33:24.902Z,95400.55
2019-05-03T09:35:51.256Z,95400.39
2019-05-03T09:38:17.409Z,95400.88
2019-05-03T09:40:45.384Z,95398.41
2019-05-03T09:43:11.648Z,95397.73
2019-05-03T09:45:37.842Z,95394.27
2019-05-03T09:48:05.668Z,95400.20
2019-05-03T09:50:32.132Z,95402.32
2019-05-03T09:52:58.373Z,95399.08
2019-05-03T09:55:26.496Z,95397.76
2019-05-03T09:57:52.640Z,95401.87
2019-05-03T10:00:19.153Z,95402.19
2019-05-03T10:02:45.359Z,95403.53
2019-05-03T10:05:12.482Z,95397.64
2019-05-03T10:07:38.748Z,95409.34
2019-05-03T10:10:07.360Z,95399.95
2019-05-03T10:12:33.534Z,95401.45
2019-05-03T10:14:59.834Z,95404.87
2019-05-03T10:17:35.118Z,95404.53
2019-05-03T10:20:04.693Z,95403.55
2019-05-03T10:22:30.850Z,95400.20
2019-05-03T10:24:57.183Z,95394.67
2019-05-03T10:27:25.149Z,95395.83
2019-05-03T10:29:51.505Z,95396.81
2019-05-03T10:32:28.380Z,95396.75
2019-05-03T10:34:57.520Z,95395.17
2019-05-03T10:37:31.012Z,95396.59
2019-05-03T10:39:58.957Z,95393.56
2019-05-03T10:42:25.067Z,95396.03
2019-05-03T10:44:51.296Z,95387.94
2019-05-03T10:47:17.483Z,95393.80
2019-05-03T10:49:45.689Z,95396.80
2019-05-03T10:52:12.018Z,95398.17
2019-05-03T10:54:38.445Z,95389.52
2019-05-03T10:57:06.479Z,95388.86
2019-05-03T10:59:32.683Z,95393.77
2019-05-03T11:02:06.463Z,95396.36
2019-05-03T11:04:33.688Z,95387.64
2019-05-03T11:07:00.789Z,95387.11
2019-05-03T11:09:27.002Z,95389.27
2019-05-03T11:11:55.326Z,95384.90
2019-05-03T11:14:21.304Z,95371.14
2019-05-03T11:16:47.611Z,95379.66
2019-05-03T11:19:14.680Z,95369.98
2019-05-03T11:21:41.525Z,95369.69
2019-05-03T11:24:07.845Z,95380.20
2019-05-03T11:26:34.987Z,95373.58
2019-05-03T11:29:04.995Z,95371.62
2019-05-03T11:31:44.823Z,95371.34
2019-05-03T11:34:15.564Z,95370.14
2019-05-03T11:36:45.417Z,95370.53
2019-05-03T11:39:11.862Z,95369.28
2019-05-03T11:41:40.065Z,95363.19
2019-05-03T11:44:24.791Z,95371.72
2019-05-03T11:46:51.123Z,95368.38
2019-05-03T11:49:17.346Z,95369.64
2019-05-03T11:51:44.680Z,95367.16
2019-05-03T11:54:10.931Z,95371.34
2019-05-03T11:56:37.156Z,95368.86
2019-05-03T11:59:05.232Z,95371.66
2019-05-03T12:01:35.565Z,95368.97
2019-05-03T12:04:01.370Z,95375.30
2019-05-03T12:06:27.765Z,95370.12
2019-05-03T12:08:55.389Z,95377.42
2019-05-03T12:11:21.940Z,95381.02
2019-05-03T12:14:01.436Z,95377.75
2019-05-03T12:16:23.339Z,95384.80
2019-05-03T12:18:52.583Z,95378.29
2019-05-03T12:21:14.452Z,95380.25
2019-05-03T12:23:41.612Z,95387.86
2019-05-03T12:26:12.647Z,95387.24
2019-05-03T12:28:36.381Z,95385.61
2019-05-03T12:31:04.474Z,95385.27
2019-05-03T12:33:31.247Z,95382.00
2019-05-03T12:35:58.463Z,95376.44
2019-05-03T12:38:25.567Z,95382.35
2019-05-03T12:40:51.895Z,95383.74
2019-05-03T12:43:18.007Z,95379.95
2019-05-03T12:45:44.214Z,95375.82
2019-05-03T12:48:10.340Z,95380.23
2019-05-03T12:50:36.960Z,95384.64
2019-05-03T12:53:04.794Z,95390.11
2019-05-03T12:55:31.484Z,95374.39
2019-05-03T12:57:57.695Z,95377.33
2019-05-03T13:00:34.701Z,95371.23
2019-05-03T13:03:04.577Z,95372.45
2019-05-03T13:05:30.748Z,95374.57
2019-05-03T13:08:01.881Z,95370.27
2019-05-03T13:10:28.050Z,95367.20
2019-05-03T13:12:55.983Z,95368.28
2019-05-03T13:15:24.452Z,95359.77
2019-05-03T13:17:50.423Z,95364.86
2019-05-03T13:20:16.961Z,95360.16
2019-05-03T13:22:45.488Z,95354.48
2019-05-03T13:25:11.835Z,95359.77
2019-05-03T13:27:38.155Z,95350.64
2019-05-03T13:30:06.372Z,95350.77
2019-05-03T13:32:32.617Z,95345.56
2019-05-03T13:34:58.942Z,95353.69
2019-05-03T13:37:25.417Z,95354.89
2019-05-03T13:39:51.842Z,95347.20
2019-05-03T13:42:18.067Z,95344.75
2019-05-03T13:44:44.948Z,95344.81
2019-05-03T13:47:11.306Z,95340.02
2019-05-03T13:49:37.530Z,95345.14
2019-05-03T13:52:05.248Z,95337.95
2019-05-03T13:54:31.664Z,95330.97
2019-05-03T13:56:57.847Z,95329.63
2019-05-03T13:59:24.671Z,95335.63
2019-05-03T14:01:51.013Z,95335.53
2019-05-03T14:04:17.307Z,95331.84
2019-05-03T14:06:44.860Z,95327.92
2019-05-03T14:09:11.141Z,95327.68
2019-05-03T14:11:37.920Z,95327.59
2019-05-03T14:14:04.701Z,95321.78
2019-05-03T14:16:31.151Z,95324.14
2019-05-03T14:19:00.267Z,95322.83
2019-05-03T14:21:31.383Z,95324.78
2019-05-03T14:24:10.673Z,95323.40
2019-05-03T14:26:37.721Z,95325.30
2019-05-03T14:29:05.694Z,95315.00
2019-05-03T14:31:32.005Z,95324.22
2019-05-03T14:33:58.235Z,95312.47
2019-05-03T14:36:25.081Z,95325.11
2019-05-03T14:38:51.421Z,95316.36
2019-05-03T14:41:17.798Z,95315.33
2019-05-03T14:43:44.161Z,95320.92
2019-05-03T14:46:10.608Z,95324.16
2019-05-03T14:48:36.869Z,95319.31
2019-05-03T14:51:05.433Z,95324.10
2019-05-03T14:53:31.586Z,95315.44
2019-05-03T14:56:07.773Z,95319.78
2019-05-03T14:58:38.559Z,95323.86
2019-05-03T15:01:18.862Z,95312.61
2019-05-03T15:03:45.148Z,95311.90
2019-05-03T15:06:11.287Z,95309.03
2019-05-03T15:08:37.512Z,95309.89
2019-05-03T15:11:05.278Z,95300.84
2019-05-03T15:13:31.760Z,95294.83
2019-05-03T15:15:57.889Z,95296.70
2019-05-03T15:18:25.613Z,95295.98
2019-05-03T15:20:51.869Z,95302.01
2019-05-03T15:23:18.121Z,95293.14
2019-05-03T15:25:45.235Z,95301.52
2019-05-03T15:28:11.997Z,95297.96
2019-05-03T15:30:38.282Z,95301.27
2019-05-03T15:33:05.107Z,95301.81
2019-05-03T15:35:31.459Z,95291.97
2019-05-03T15:37:57.798Z,95292.98
2019-05-03T15:40:25.075Z,95302.66
2019-05-03T15:42:56.287Z,95307.13
2019-05-03T15:45:39.521Z,95302.45
2019-05-03T15:48:07.819Z,95303.02
2019-05-03T15:50:35.534Z,95301.41
2019-05-03T15:53:02.100Z,95300.88
2019-05-03T15:55:28.349Z,95297.22
2019-05-03T15:57:55.266Z,95299.59
2019-05-03T16:00:22.111Z,95299.12
2019-05-03T16:02:48.324Z,95302.47
2019-05-03T16:05:15.569Z,95300.39
2019-05-03T16:07:41.855Z,95297.80
2019-05-03T16:10:08.442Z,95298.72
2019-05-03T16:12:34.780Z,95303.69
2019-05-03T16:15:01.205Z,95297.13
2019-05-03T16:17:27.339Z,95301.75
2019-05-03T16:19:55.614Z,95303.59
2019-05-03T16:22:21.761Z,95301.81
2019-05-03T16:24:47.986Z,95294.56
2019-05-03T16:27:22.212Z,95302.79
2019-05-03T16:29:48.423Z,95292.13
2019-05-03T16:32:15.201Z,95294.94
2019-05-03T16:34:41.491Z,95294.14
2019-05-03T16:37:07.785Z,95293.97
2019-05-03T16:39:35.326Z,95298.44
2019-05-03T16:42:04.241Z,95292.02
2019-05-03T16:44:32.163Z,95289.90
2019-05-03T16:46:58.456Z,95287.09
2019-05-03T16:49:24.718Z,95292.19
2019-05-03T16:51:50.984Z,95288.38
2019-05-03T16:54:17.217Z,95288.20
2019-05-03T16:56:44.449Z,95280.81
2019-05-03T16:59:11.007Z,95293.17
2019-05-03T17:01:37.184Z,95283.59
2019-05-03T17:04:14.577Z,95289.73
2019-05-03T17:06:42.741Z,95290.73
2019-05-03T17:09:14.510Z,95293.57
2019-05-03T17:11:42.920Z,95293.11
2019-05-03T17:14:09.103Z,95291.13
2019-05-03T17:16:35.380Z,95300.02
2019-05-03T17:19:01.536Z,95295.74
2019-05-03T17:21:28.196Z,95292.30
2019-05-03T17:23:55.590Z,95297.75
2019-05-03T17:26:21.886Z,95300.38
2019-05-03T17:28:48.085Z,95309.29
2019-05-03T17:31:15.591Z,95303.20
2019-05-03T17:33:51.519Z,95307.02
2019-05-03T17:36:12.035Z,95301.41
2019-05-03T17:38:38.367Z,95308.49
2019-05-03T17:41:25.596Z,95302.41
2019-05-03T17:43:54.965Z,95298.63
2019-05-03T17:46:21.245Z,95305.06
2019-05-03T17:48:47.450Z,95308.70
2019-05-03T17:51:35.136Z,95306.41
2019-05-03T17:54:19.820Z,95309.69
2019-05-03T17:56:55.141Z,95308.70
2019-05-03T17:59:24.457Z,95308.21
2019-05-03T18:02:09.457Z,95307.06
2019-05-03T18:04:55.013Z,95307.75
2019-05-03T18:07:26.506Z,95305.27
2019-05-03T18:09:55.405Z,95298.70
2019-05-03T18:12:21.716Z,95301.00
2019-05-03T18:14:48.076Z,95297.38
2019-05-03T18:17:14.776Z,95299.88
2019-05-03T18:19:41.345Z,95297.91
2019-05-03T18:22:07.549Z,95302.17
2019-05-03T18:24:35.222Z,95303.19
2019-05-03T18:27:01.570Z,95301.03
2019-05-03T18:29:27.803Z,95301.38
2019-05-03T18:31:55.066Z,95304.98
2019-05-03T18:34:22.559Z,95307.94
2019-05-03T18:36:49.586Z,95310.74
2019-05-03T18:39:15.920Z,95311.70
2019-05-03T18:41:42.340Z,95317.48
2019-05-03T18:44:10.587Z,95318.95
2019-05-03T18:46:38.675Z,95320.77
2019-05-03T18:49:05.018Z,95321.42
2019-05-03T18:51:31.434Z,95319.78
2019-05-03T18:53:57.680Z,95324.38
2019-05-03T18:56:25.210Z,95322.73
2019-05-03T18:58:51.524Z,95327.01
2019-05-03T19:01:17.851Z,95322.88
2019-05-03T19:03:46.854Z,95328.63
2019-05-03T19:06:13.132Z,95334.36
2019-05-03T19:08:41.329Z,95329.58
2019-05-03T19:11:12.676Z,95331.38
2019-05-03T19:13:52.979Z,95330.06
2019-05-03T19:19:46.994Z,95333.02
2019-05-03T19:22:15.296Z,95339.10
2019-05-03T19:24:41.473Z,95333.69
2019-05-03T19:27:08.137Z,95330.90
2019-05-03T19:29:34.964Z,95327.95
2019-05-03T19:32:01.392Z,95330.41
2019-05-03T19:34:27.502Z,95327.95
2019-05-03T19:36:54.711Z,95329.10
2019-05-03T19:39:21.109Z,95333.72
2019-05-03T19:41:47.407Z,95326.66
2019-05-03T19:44:15.152Z,95335.36
2019-05-03T19:46:41.547Z,95327.47
2019-05-03T19:49:07.745Z,95327.94
2019-05-03T19:51:34.419Z,95322.97
2019-05-03T19:54:02.278Z,95326.55
2019-05-03T19:56:28.575Z,95322.05
2019-05-03T19:58:56.692Z,95327.76
2019-05-03T20:01:27.875Z,95321.28
2019-05-03T20:04:11.797Z,95322.85
2019-05-03T20:06:54.890Z,95324.09
2019-05-03T20:09:25.699Z,95328.94
2019-05-03T20:11:51.863Z,95333.12
2019-05-03T20:14:18.155Z,95338.30
2019-05-03T20:16:44.990Z,95333.67
2019-05-03T20:19:19.063Z,95335.97
2019-05-03T20:21:39.418Z,95336.30
2019-05-03T20:24:05.717Z,95338.45
2019-05-03T20:26:32.002Z,95336.66
2019-05-03T20:28:58.167Z,95331.91
2019-05-03T20:31:25.303Z,95328.98
2019-05-03T20:33:51.426Z,95330.03
2019-05-03T20:36:17.658Z,95329.54
2019-05-03T20:38:44.528Z,95331.56
2019-05-03T20:41:10.978Z,95332.25
2019-05-03T20:43:56.066Z,95327.30
2019-05-03T20:46:29.950Z,95330.94
2019-05-03T20:48:58.102Z,95331.58
2019-05-03T20:51:25.216Z,95337.19
2019-05-03T20:53:51.566Z,95328.02
2019-05-03T20:56:17.740Z,95335.74
2019-05-03T20:58:44.664Z,95325.23
2019-05-03T21:01:10.986Z,95328.71
2019-05-03T21:03:37.154Z,95326.77
2019-05-03T21:06:04.980Z,95315.88
2019-05-03T21:08:31.327Z,95313.46
2019-05-03T21:10:57.492Z,95315.74
2019-05-03T21:13:25.202Z,95320.25
2019-05-03T21:15:53.750Z,95319.55
2019-05-03T21:18:40.284Z,95309.02
2019-05-03T21:21:17.029Z,95304.05
2019-05-03T21:23:45.140Z,95304.16
2019-05-03T21:26:13.362Z,95304.28
2019-05-03T21:28:39.442Z,95300.95
2019-05-03T21:31:05.835Z,95300.42
2019-05-03T21:33:32.248Z,95299.92
2019-05-03T21:35:58.353Z,95305.47
2019-05-03T21:38:24.674Z,95304.61
2019-05-03T21:40:50.913Z,95302.76
2019-05-03T21:43:17.154Z,95299.93
2019-05-03T21:45:54.500Z,95304.97
2019-05-03T21:48:22.678Z,95299.36
2019-05-03T21:50:48.885Z,95298.80
2019-05-03T21:53:15.175Z,95292.84
2019-05-03T21:55:41.345Z,95294.92
2019-05-03T21:58:07.541Z,95296.20
2019-05-03T22:00:39.102Z,95301.38
2019-05-03T22:03:05.693Z,95293.66
2019-05-03T22:05:33.113Z,95299.02
2019-05-03T22:07:59.891Z,95295.38
2019-05-03T22:10:26.145Z,95295.67
2019-05-03T22:12:54.330Z,95290.25
2019-05-03T22:15:27.873Z,95289.38
2019-05-03T22:18:15.192Z,95279.52
2019-05-03T22:20:45.346Z,95280.46
2019-05-03T22:23:14.997Z,95282.00
2019-05-03T22:25:43.395Z,95278.31
2019-05-03T22:28:09.697Z,95279.38
2019-05-03T22:30:35.995Z,95276.17
2019-05-03T22:33:02.378Z,95275.00
2019-05-03T22:35:28.683Z,95279.30
2019-05-03T22:37:55.144Z,95279.77
2019-05-03T22:40:21.409Z,95274.82
2019-05-03T22:42:47.788Z,95274.67
2019-05-03T22:45:14.239Z,95270.60
2019-05-03T22:47:40.543Z,95271.36
2019-05-03T22:50:07.953Z,95268.27
2019-05-03T22:52:34.977Z,95266.48
2019-05-03T22:55:02.253Z,95257.84
2019-05-03T22:57:29.638Z,95253.33
2019-05-03T22:59:55.859Z,95253.40
2019-05-03T23:02:22.257Z,95251.25
2019-05-03T23:04:48.630Z,95249.40
2019-05-03T23:07:15.058Z,95247.33
2019-05-03T23:09:41.355Z,95245.69
2019-05-03T23:12:07.630Z,95244.02
2019-05-03T23:14:34.705Z,95241.76
2019-05-03T23:17:01.093Z,95237.33
2019-05-03T23:19:28.432Z,95236.52
2019-05-03T23:22:11.966Z,95227.83
2019-05-03T23:24:38.131Z,95227.14
2019-05-03T23:27:05.072Z,95220.30
2019-05-03T23:29:31.564Z,95216.05
2019-05-03T23:31:57.835Z,95217.69
2019-05-03T23:34:24.727Z,95217.02
2019-05-03T23:36:51.127Z,95216.67
2019-05-03T23:39:17.233Z,95203.68
2019-05-03T23:41:43.465Z,95206.45
2019-05-03T23:44:09.620Z,95203.00
2019-05-03T23:46:40.784Z,95199.28
2019-05-03T23:49:06.853Z,95192.73
2019-05-03T23:51:44.410Z,95191.21
2019-05-03T23:54:10.617Z,95187.10
2019-05-03T23:56:36.924Z,95185.75
2019-05-03T23:59:05.361Z,95179.83
